sensor_id;sensor_type;location;lat;lon;timestamp;P1;durP1;ratioP1;P2;durP2;ratioP2
22097;SDS011;11215;51.938;8.464;2022-10-18T00:01:07;11.90;;;10.07;;
22097;SDS011;11215;51.938;8.464;2022-10-18T00:03:33;15.20;;;12.07;;
22097;SDS011;11215;51.938;8.464;2022-10-18T00:05:59;14.57;;;11.87;;
22097;SDS011;11215;51.938;8.464;2022-10-18T00:08:26;16.43;;;12.10;;
22097;SDS011;11215;51.938;8.464;2022-10-18T00:10:53;14.07;;;12.30;;
22097;SDS011;11215;51.938;8.464;2022-10-18T00:13:19;15.97;;;12.70;;
22097;SDS011;11215;51.938;8.464;2022-10-18T00:15:50;16.37;;;12.93;;
22097;SDS011;11215;51.938;8.464;2022-10-18T00:18:21;15.63;;;12.53;;
22097;SDS011;11215;51.938;8.464;2022-10-18T00:23:49;14.57;;;13.03;;
22097;SDS011;11215;51.938;8.464;2022-10-18T00:26:18;14.50;;;13.00;;
22097;SDS011;11215;51.938;8.464;2022-10-18T00:28:52;15.23;;;12.97;;
22097;SDS011;11215;51.938;8.464;2022-10-18T00:31:33;17.67;;;11.70;;
22097;SDS011;11215;51.938;8.464;2022-10-18T00:34:01;13.17;;;11.50;;
22097;SDS011;11215;51.938;8.464;2022-10-18T00:36:32;14.67;;;11.90;;
22097;SDS011;11215;51.938;8.464;2022-10-18T00:38:59;15.33;;;12.50;;
22097;SDS011;11215;51.938;8.464;2022-10-18T00:41:28;16.60;;;13.43;;
22097;SDS011;11215;51.938;8.464;2022-10-18T00:43:59;18.00;;;13.27;;
22097;SDS011;11215;51.938;8.464;2022-10-18T00:46:41;15.63;;;12.53;;
22097;SDS011;11215;51.938;8.464;2022-10-18T00:49:16;15.80;;;13.37;;
22097;SDS011;11215;51.938;8.464;2022-10-18T00:51:46;19.40;;;13.50;;
22097;SDS011;11215;51.938;8.464;2022-10-18T00:54:28;14.87;;;12.70;;
22097;SDS011;11215;51.938;8.464;2022-10-18T00:56:55;19.13;;;14.40;;
22097;SDS011;11215;51.938;8.464;2022-10-18T00:59:22;18.80;;;14.37;;
22097;SDS011;11215;51.938;8.464;2022-10-18T01:01:48;15.10;;;13.07;;
22097;SDS011;11215;51.938;8.464;2022-10-18T01:04:14;15.57;;;13.00;;
22097;SDS011;11215;51.938;8.464;2022-10-18T01:09:41;17.57;;;12.90;;
22097;SDS011;11215;51.938;8.464;2022-10-18T01:32:34;17.27;;;11.63;;
22097;SDS011;11215;51.938;8.464;2022-10-18T01:35:05;14.50;;;12.30;;
22097;SDS011;11215;51.938;8.464;2022-10-18T01:37:35;14.30;;;12.00;;
22097;SDS011;11215;51.938;8.464;2022-10-18T01:40:03;14.77;;;12.27;;
22097;SDS011;11215;51.938;8.464;2022-10-18T01:42:31;14.97;;;12.03;;
22097;SDS011;11215;51.938;8.464;2022-10-18T01:44:58;16.03;;;12.67;;
22097;SDS011;11215;51.938;8.464;2022-10-18T01:47:26;16.13;;;12.87;;
22097;SDS011;11215;51.938;8.464;2022-10-18T01:49:57;14.13;;;11.20;;
22097;SDS011;11215;51.938;8.464;2022-10-18T01:52:28;13.07;;;11.23;;
22097;SDS011;11215;51.938;8.464;2022-10-18T01:54:55;17.03;;;11.67;;
22097;SDS011;11215;51.938;8.464;2022-10-18T01:59:58;13.37;;;11.03;;
22097;SDS011;11215;51.938;8.464;2022-10-18T02:02:41;14.67;;;12.40;;
22097;SDS011;11215;51.938;8.464;2022-10-18T02:13:43;12.90;;;11.10;;
22097;SDS011;11215;51.938;8.464;2022-10-18T02:16:35;13.57;;;11.20;;
22097;SDS011;11215;51.938;8.464;2022-10-18T02:21:39;13.90;;;12.30;;
22097;SDS011;11215;51.938;8.464;2022-10-18T02:24:08;14.63;;;11.57;;
22097;SDS011;11215;51.938;8.464;2022-10-18T02:26:36;15.80;;;11.20;;
22097;SDS011;11215;51.938;8.464;2022-10-18T02:29:02;13.97;;;12.40;;
22097;SDS011;11215;51.938;8.464;2022-10-18T02:31:36;15.17;;;11.97;;
22097;SDS011;11215;51.938;8.464;2022-10-18T02:34:22;14.87;;;11.57;;
22097;SDS011;11215;51.938;8.464;2022-10-18T02:36:52;12.70;;;11.13;;
22097;SDS011;11215;51.938;8.464;2022-10-18T02:39:22;15.20;;;12.17;;
22097;SDS011;11215;51.938;8.464;2022-10-18T02:42:02;15.43;;;12.23;;
22097;SDS011;11215;51.938;8.464;2022-10-18T02:44:31;15.10;;;12.07;;
22097;SDS011;11215;51.938;8.464;2022-10-18T02:47:00;16.73;;;12.60;;
22097;SDS011;11215;51.938;8.464;2022-10-18T02:49:27;16.20;;;13.03;;
22097;SDS011;11215;51.938;8.464;2022-10-18T02:51:53;14.90;;;11.53;;
22097;SDS011;11215;51.938;8.464;2022-10-18T02:54:19;14.90;;;12.57;;
22097;SDS011;11215;51.938;8.464;2022-10-18T02:56:45;14.27;;;11.70;;
22097;SDS011;11215;51.938;8.464;2022-10-18T02:59:11;16.00;;;11.57;;
22097;SDS011;11215;51.938;8.464;2022-10-18T03:01:37;15.40;;;11.60;;
22097;SDS011;11215;51.938;8.464;2022-10-18T03:04:03;14.87;;;12.23;;
22097;SDS011;11215;51.938;8.464;2022-10-18T03:06:29;13.23;;;11.40;;
22097;SDS011;11215;51.938;8.464;2022-10-18T03:08:55;12.77;;;11.43;;
22097;SDS011;11215;51.938;8.464;2022-10-18T03:11:21;14.33;;;12.47;;
22097;SDS011;11215;51.938;8.464;2022-10-18T03:13:47;16.23;;;12.70;;
22097;SDS011;11215;51.938;8.464;2022-10-18T03:16:15;10.53;;;9.30;;
22097;SDS011;11215;51.938;8.464;2022-10-18T03:18:41;14.27;;;11.83;;
22097;SDS011;11215;51.938;8.464;2022-10-18T03:21:07;12.80;;;10.33;;
22097;SDS011;11215;51.938;8.464;2022-10-18T03:23:34;15.80;;;11.63;;
22097;SDS011;11215;51.938;8.464;2022-10-18T03:26:00;13.63;;;10.73;;
22097;SDS011;11215;51.938;8.464;2022-10-18T03:28:26;12.07;;;10.40;;
22097;SDS011;11215;51.938;8.464;2022-10-18T03:30:52;16.17;;;12.17;;
22097;SDS011;11215;51.938;8.464;2022-10-18T03:33:23;13.43;;;11.30;;
22097;SDS011;11215;51.938;8.464;2022-10-18T03:35:49;12.10;;;10.80;;
22097;SDS011;11215;51.938;8.464;2022-10-18T03:38:15;14.10;;;11.37;;
22097;SDS011;11215;51.938;8.464;2022-10-18T03:40:41;13.03;;;10.57;;
22097;SDS011;11215;51.938;8.464;2022-10-18T03:43:07;13.90;;;11.00;;
22097;SDS011;11215;51.938;8.464;2022-10-18T03:45:32;14.10;;;10.43;;
22097;SDS011;11215;51.938;8.464;2022-10-18T03:47:58;13.53;;;10.47;;
22097;SDS011;11215;51.938;8.464;2022-10-18T03:50:24;14.70;;;10.43;;
22097;SDS011;11215;51.938;8.464;2022-10-18T03:52:50;12.27;;;10.23;;
22097;SDS011;11215;51.938;8.464;2022-10-18T03:55:18;14.73;;;11.73;;
22097;SDS011;11215;51.938;8.464;2022-10-18T03:57:44;13.80;;;10.80;;
22097;SDS011;11215;51.938;8.464;2022-10-18T04:00:10;13.17;;;10.13;;
22097;SDS011;11215;51.938;8.464;2022-10-18T04:02:36;11.33;;;8.70;;
22097;SDS011;11215;51.938;8.464;2022-10-18T04:05:02;10.20;;;8.57;;
22097;SDS011;11215;51.938;8.464;2022-10-18T04:07:29;12.37;;;9.40;;
22097;SDS011;11215;51.938;8.464;2022-10-18T04:09:55;9.80;;;8.80;;
22097;SDS011;11215;51.938;8.464;2022-10-18T04:12:21;11.17;;;9.23;;
22097;SDS011;11215;51.938;8.464;2022-10-18T04:14:47;15.00;;;10.13;;
22097;SDS011;11215;51.938;8.464;2022-10-18T04:17:13;13.07;;;9.53;;
22097;SDS011;11215;51.938;8.464;2022-10-18T04:19:39;11.60;;;9.30;;
22097;SDS011;11215;51.938;8.464;2022-10-18T04:22:05;11.03;;;9.70;;
22097;SDS011;11215;51.938;8.464;2022-10-18T04:24:32;11.67;;;8.33;;
22097;SDS011;11215;51.938;8.464;2022-10-18T04:26:58;13.67;;;10.43;;
22097;SDS011;11215;51.938;8.464;2022-10-18T04:29:24;10.97;;;9.60;;
22097;SDS011;11215;51.938;8.464;2022-10-18T04:31:50;12.77;;;9.33;;
22097;SDS011;11215;51.938;8.464;2022-10-18T04:34:16;12.23;;;9.47;;
22097;SDS011;11215;51.938;8.464;2022-10-18T04:36:42;10.13;;;8.37;;
22097;SDS011;11215;51.938;8.464;2022-10-18T04:39:08;9.90;;;8.80;;
22097;SDS011;11215;51.938;8.464;2022-10-18T04:41:34;10.60;;;9.33;;
22097;SDS011;11215;51.938;8.464;2022-10-18T04:44:00;11.17;;;9.60;;
22097;SDS011;11215;51.938;8.464;2022-10-18T04:46:26;10.13;;;8.50;;
22097;SDS011;11215;51.938;8.464;2022-10-18T04:48:52;10.37;;;8.83;;
22097;SDS011;11215;51.938;8.464;2022-10-18T04:51:18;13.20;;;9.47;;
22097;SDS011;11215;51.938;8.464;2022-10-18T04:53:44;12.17;;;9.07;;
22097;SDS011;11215;51.938;8.464;2022-10-18T04:56:10;11.47;;;9.33;;
22097;SDS011;11215;51.938;8.464;2022-10-18T04:58:36;10.03;;;8.87;;
22097;SDS011;11215;51.938;8.464;2022-10-18T05:01:06;13.50;;;10.07;;
22097;SDS011;11215;51.938;8.464;2022-10-18T05:03:32;12.10;;;9.63;;
22097;SDS011;11215;51.938;8.464;2022-10-18T05:05:58;11.83;;;9.90;;
22097;SDS011;11215;51.938;8.464;2022-10-18T05:08:24;9.77;;;8.77;;
22097;SDS011;11215;51.938;8.464;2022-10-18T05:10:50;13.70;;;9.97;;
22097;SDS011;11215;51.938;8.464;2022-10-18T05:13:16;9.90;;;8.80;;
22097;SDS011;11215;51.938;8.464;2022-10-18T05:15:42;12.30;;;9.27;;
22097;SDS011;11215;51.938;8.464;2022-10-18T05:18:10;12.37;;;10.00;;
22097;SDS011;11215;51.938;8.464;2022-10-18T05:20:35;9.83;;;8.57;;
22097;SDS011;11215;51.938;8.464;2022-10-18T05:23:01;10.47;;;7.30;;
22097;SDS011;11215;51.938;8.464;2022-10-18T05:25:27;9.87;;;8.07;;
22097;SDS011;11215;51.938;8.464;2022-10-18T05:27:53;10.47;;;8.07;;
22097;SDS011;11215;51.938;8.464;2022-10-18T05:30:19;9.10;;;8.17;;
22097;SDS011;11215;51.938;8.464;2022-10-18T05:32:45;9.00;;;8.10;;
22097;SDS011;11215;51.938;8.464;2022-10-18T05:35:11;11.23;;;8.33;;
22097;SDS011;11215;51.938;8.464;2022-10-18T05:37:37;10.07;;;8.47;;
22097;SDS011;11215;51.938;8.464;2022-10-18T05:40:03;10.60;;;7.93;;
22097;SDS011;11215;51.938;8.464;2022-10-18T05:42:30;9.93;;;8.70;;
22097;SDS011;11215;51.938;8.464;2022-10-18T05:44:55;11.47;;;8.20;;
22097;SDS011;11215;51.938;8.464;2022-10-18T05:47:21;9.80;;;7.50;;
22097;SDS011;11215;51.938;8.464;2022-10-18T05:49:47;9.53;;;8.27;;
22097;SDS011;11215;51.938;8.464;2022-10-18T05:52:13;9.07;;;6.70;;
22097;SDS011;11215;51.938;8.464;2022-10-18T05:54:41;10.50;;;8.37;;
22097;SDS011;11215;51.938;8.464;2022-10-18T05:57:06;12.37;;;8.60;;
22097;SDS011;11215;51.938;8.464;2022-10-18T05:59:32;10.87;;;8.80;;
22097;SDS011;11215;51.938;8.464;2022-10-18T06:01:59;10.47;;;8.70;;
22097;SDS011;11215;51.938;8.464;2022-10-18T06:04:24;9.23;;;7.70;;
22097;SDS011;11215;51.938;8.464;2022-10-18T06:06:50;10.07;;;7.93;;
22097;SDS011;11215;51.938;8.464;2022-10-18T06:09:17;9.20;;;7.20;;
22097;SDS011;11215;51.938;8.464;2022-10-18T06:11:43;8.60;;;7.63;;
22097;SDS011;11215;51.938;8.464;2022-10-18T06:14:10;10.93;;;8.67;;
22097;SDS011;11215;51.938;8.464;2022-10-18T06:16:36;11.17;;;8.00;;
22097;SDS011;11215;51.938;8.464;2022-10-18T06:19:02;9.13;;;7.67;;
22097;SDS011;11215;51.938;8.464;2022-10-18T06:21:28;9.23;;;7.63;;
22097;SDS011;11215;51.938;8.464;2022-10-18T06:23:55;9.23;;;7.00;;
22097;SDS011;11215;51.938;8.464;2022-10-18T06:26:22;9.17;;;7.70;;
22097;SDS011;11215;51.938;8.464;2022-10-18T06:28:48;7.83;;;7.03;;
22097;SDS011;11215;51.938;8.464;2022-10-18T06:31:14;8.93;;;7.50;;
22097;SDS011;11215;51.938;8.464;2022-10-18T06:33:41;10.07;;;7.83;;
22097;SDS011;11215;51.938;8.464;2022-10-18T06:36:11;9.63;;;7.23;;
22097;SDS011;11215;51.938;8.464;2022-10-18T06:38:39;9.37;;;7.63;;
22097;SDS011;11215;51.938;8.464;2022-10-18T06:41:05;8.50;;;7.60;;
22097;SDS011;11215;51.938;8.464;2022-10-18T06:43:33;9.73;;;8.20;;
22097;SDS011;11215;51.938;8.464;2022-10-18T06:45:59;12.63;;;7.97;;
22097;SDS011;11215;51.938;8.464;2022-10-18T06:48:27;9.50;;;7.67;;
22097;SDS011;11215;51.938;8.464;2022-10-18T06:50:54;10.00;;;7.90;;
22097;SDS011;11215;51.938;8.464;2022-10-18T06:53:21;9.57;;;8.07;;
22097;SDS011;11215;51.938;8.464;2022-10-18T06:55:48;11.10;;;7.63;;
22097;SDS011;11215;51.938;8.464;2022-10-18T06:58:14;9.03;;;7.53;;
22097;SDS011;11215;51.938;8.464;2022-10-18T07:00:40;8.73;;;7.60;;
22097;SDS011;11215;51.938;8.464;2022-10-18T07:03:06;10.10;;;7.87;;
22097;SDS011;11215;51.938;8.464;2022-10-18T07:05:32;8.50;;;7.50;;
22097;SDS011;11215;51.938;8.464;2022-10-18T07:07:58;9.87;;;7.63;;
22097;SDS011;11215;51.938;8.464;2022-10-18T07:10:25;9.33;;;7.23;;
22097;SDS011;11215;51.938;8.464;2022-10-18T07:12:51;11.17;;;8.60;;
22097;SDS011;11215;51.938;8.464;2022-10-18T07:15:16;8.17;;;7.33;;
22097;SDS011;11215;51.938;8.464;2022-10-18T07:17:43;9.50;;;7.37;;
22097;SDS011;11215;51.938;8.464;2022-10-18T07:20:11;10.40;;;8.00;;
22097;SDS011;11215;51.938;8.464;2022-10-18T07:22:37;8.20;;;7.27;;
22097;SDS011;11215;51.938;8.464;2022-10-18T07:25:07;9.40;;;7.03;;
22097;SDS011;11215;51.938;8.464;2022-10-18T07:27:37;10.57;;;7.93;;
22097;SDS011;11215;51.938;8.464;2022-10-18T07:30:07;11.17;;;7.67;;
22097;SDS011;11215;51.938;8.464;2022-10-18T07:32:34;12.77;;;8.63;;
22097;SDS011;11215;51.938;8.464;2022-10-18T07:35:00;11.47;;;7.73;;
22097;SDS011;11215;51.938;8.464;2022-10-18T07:37:27;8.87;;;7.50;;
22097;SDS011;11215;51.938;8.464;2022-10-18T07:39:53;8.17;;;7.27;;
22097;SDS011;11215;51.938;8.464;2022-10-18T07:42:19;10.33;;;8.33;;
22097;SDS011;11215;51.938;8.464;2022-10-18T07:44:44;13.07;;;8.40;;
22097;SDS011;11215;51.938;8.464;2022-10-18T07:47:10;9.93;;;8.13;;
22097;SDS011;11215;51.938;8.464;2022-10-18T07:49:36;9.20;;;8.20;;
22097;SDS011;11215;51.938;8.464;2022-10-18T07:52:02;11.17;;;9.03;;
22097;SDS011;11215;51.938;8.464;2022-10-18T07:54:29;9.00;;;8.03;;
22097;SDS011;11215;51.938;8.464;2022-10-18T07:56:55;12.50;;;8.27;;
22097;SDS011;11215;51.938;8.464;2022-10-18T07:59:20;11.77;;;8.23;;
22097;SDS011;11215;51.938;8.464;2022-10-18T08:01:46;13.57;;;8.90;;
22097;SDS011;11215;51.938;8.464;2022-10-18T08:04:12;12.03;;;8.83;;
22097;SDS011;11215;51.938;8.464;2022-10-18T08:06:38;10.00;;;8.53;;
22097;SDS011;11215;51.938;8.464;2022-10-18T08:09:04;11.97;;;8.70;;
22097;SDS011;11215;51.938;8.464;2022-10-18T08:11:31;11.20;;;9.17;;
22097;SDS011;11215;51.938;8.464;2022-10-18T08:13:57;9.97;;;8.67;;
22097;SDS011;11215;51.938;8.464;2022-10-18T08:16:26;11.10;;;8.87;;
22097;SDS011;11215;51.938;8.464;2022-10-18T08:18:53;12.23;;;9.83;;
22097;SDS011;11215;51.938;8.464;2022-10-18T08:21:22;13.27;;;9.67;;
22097;SDS011;11215;51.938;8.464;2022-10-18T08:23:48;10.53;;;9.17;;
22097;SDS011;11215;51.938;8.464;2022-10-18T08:26:15;16.93;;;9.80;;
22097;SDS011;11215;51.938;8.464;2022-10-18T08:28:43;10.93;;;8.20;;
22097;SDS011;11215;51.938;8.464;2022-10-18T08:31:10;14.97;;;10.70;;
22097;SDS011;11215;51.938;8.464;2022-10-18T08:33:38;11.97;;;10.20;;
22097;SDS011;11215;51.938;8.464;2022-10-18T08:36:05;13.40;;;9.33;;
22097;SDS011;11215;51.938;8.464;2022-10-18T08:38:33;11.63;;;9.50;;
22097;SDS011;11215;51.938;8.464;2022-10-18T08:41:01;17.57;;;10.00;;
22097;SDS011;11215;51.938;8.464;2022-10-18T08:46:37;12.93;;;8.97;;
22097;SDS011;11215;51.938;8.464;2022-10-18T08:49:08;14.37;;;9.50;;
22097;SDS011;11215;51.938;8.464;2022-10-18T08:51:44;14.73;;;10.47;;
22097;SDS011;11215;51.938;8.464;2022-10-18T08:54:14;18.83;;;12.70;;
22097;SDS011;11215;51.938;8.464;2022-10-18T08:56:58;13.83;;;11.23;;
22097;SDS011;11215;51.938;8.464;2022-10-18T08:59:26;11.77;;;9.80;;
22097;SDS011;11215;51.938;8.464;2022-10-18T09:16:03;10.83;;;8.90;;
22097;SDS011;11215;51.938;8.464;2022-10-18T09:24:20;13.50;;;11.17;;
22097;SDS011;11215;51.938;8.464;2022-10-18T09:27:04;14.60;;;12.30;;
22097;SDS011;11215;51.938;8.464;2022-10-18T09:32:22;14.90;;;12.40;;
22097;SDS011;11215;51.938;8.464;2022-10-18T09:35:04;14.70;;;11.67;;
22097;SDS011;11215;51.938;8.464;2022-10-18T09:37:36;17.90;;;13.23;;
22097;SDS011;11215;51.938;8.464;2022-10-18T09:40:10;18.60;;;13.97;;
22097;SDS011;11215;51.938;8.464;2022-10-18T09:42:38;19.37;;;15.53;;
22097;SDS011;11215;51.938;8.464;2022-10-18T09:45:25;23.30;;;15.93;;
22097;SDS011;11215;51.938;8.464;2022-10-18T09:55:58;22.20;;;16.23;;
22097;SDS011;11215;51.938;8.464;2022-10-18T09:58:28;24.00;;;16.77;;
22097;SDS011;11215;51.938;8.464;2022-10-18T10:01:05;23.53;;;17.73;;
22097;SDS011;11215;51.938;8.464;2022-10-18T10:03:32;26.40;;;17.53;;
22097;SDS011;11215;51.938;8.464;2022-10-18T10:06:21;25.10;;;17.77;;
22097;SDS011;11215;51.938;8.464;2022-10-18T10:08:59;26.63;;;18.40;;
22097;SDS011;11215;51.938;8.464;2022-10-18T10:11:38;26.53;;;17.07;;
22097;SDS011;11215;51.938;8.464;2022-10-18T10:21:50;29.00;;;19.43;;
22097;SDS011;11215;51.938;8.464;2022-10-18T10:24:22;27.57;;;18.60;;
22097;SDS011;11215;51.938;8.464;2022-10-18T10:27:00;28.73;;;19.13;;
22097;SDS011;11215;51.938;8.464;2022-10-18T10:32:16;26.93;;;18.63;;
22097;SDS011;11215;51.938;8.464;2022-10-18T10:34:44;27.90;;;19.00;;
22097;SDS011;11215;51.938;8.464;2022-10-18T10:37:32;27.00;;;18.93;;
22097;SDS011;11215;51.938;8.464;2022-10-18T10:40:14;27.50;;;18.23;;
22097;SDS011;11215;51.938;8.464;2022-10-18T10:45:24;33.87;;;20.13;;
22097;SDS011;11215;51.938;8.464;2022-10-18T10:47:52;29.23;;;20.50;;
22097;SDS011;11215;51.938;8.464;2022-10-18T10:50:23;31.30;;;19.03;;
22097;SDS011;11215;51.938;8.464;2022-10-18T10:52:50;29.27;;;19.83;;
22097;SDS011;11215;51.938;8.464;2022-10-18T10:55:18;28.33;;;19.17;;
22097;SDS011;11215;51.938;8.464;2022-10-18T10:57:48;32.87;;;21.83;;
22097;SDS011;11215;51.938;8.464;2022-10-18T11:00:36;29.67;;;19.63;;
22097;SDS011;11215;51.938;8.464;2022-10-18T11:03:14;31.63;;;20.17;;
22097;SDS011;11215;51.938;8.464;2022-10-18T11:05:52;30.27;;;19.23;;
22097;SDS011;11215;51.938;8.464;2022-10-18T11:08:25;31.33;;;19.93;;
22097;SDS011;11215;51.938;8.464;2022-10-18T11:11:21;28.30;;;19.07;;
22097;SDS011;11215;51.938;8.464;2022-10-18T11:13:55;30.80;;;19.87;;
22097;SDS011;11215;51.938;8.464;2022-10-18T11:18:57;26.93;;;19.00;;
22097;SDS011;11215;51.938;8.464;2022-10-18T11:21:28;29.77;;;20.10;;
22097;SDS011;11215;51.938;8.464;2022-10-18T11:23:56;31.10;;;20.67;;
22097;SDS011;11215;51.938;8.464;2022-10-18T11:26:28;31.90;;;21.20;;
22097;SDS011;11215;51.938;8.464;2022-10-18T11:29:48;29.00;;;19.57;;
22097;SDS011;11215;51.938;8.464;2022-10-18T11:51:01;17.57;;;11.07;;
22097;SDS011;11215;51.938;8.464;2022-10-18T11:56:12;19.17;;;11.73;;
22097;SDS011;11215;51.938;8.464;2022-10-18T12:04:38;23.13;;;11.83;;
22097;SDS011;11215;51.938;8.464;2022-10-18T12:07:09;17.73;;;11.13;;
22097;SDS011;11215;51.938;8.464;2022-10-18T12:09:43;17.23;;;12.03;;
22097;SDS011;11215;51.938;8.464;2022-10-18T12:14:58;22.00;;;12.10;;
22097;SDS011;11215;51.938;8.464;2022-10-18T12:19:55;18.50;;;11.77;;
22097;SDS011;11215;51.938;8.464;2022-10-18T12:22:26;18.50;;;11.40;;
22097;SDS011;11215;51.938;8.464;2022-10-18T12:24:56;18.47;;;12.10;;
22097;SDS011;11215;51.938;8.464;2022-10-18T12:27:34;15.63;;;10.33;;
22097;SDS011;11215;51.938;8.464;2022-10-18T12:30:13;15.17;;;10.40;;
22097;SDS011;11215;51.938;8.464;2022-10-18T12:32:52;15.87;;;9.87;;
22097;SDS011;11215;51.938;8.464;2022-10-18T12:35:26;13.90;;;8.53;;
22097;SDS011;11215;51.938;8.464;2022-10-18T12:42:56;12.40;;;9.10;;
22097;SDS011;11215;51.938;8.464;2022-10-18T12:45:30;14.77;;;9.70;;
22097;SDS011;11215;51.938;8.464;2022-10-18T12:47:59;19.80;;;10.30;;
22097;SDS011;11215;51.938;8.464;2022-10-18T12:50:38;16.50;;;10.50;;
22097;SDS011;11215;51.938;8.464;2022-10-18T12:53:14;18.33;;;9.77;;
22097;SDS011;11215;51.938;8.464;2022-10-18T12:55:48;17.03;;;10.30;;
22097;SDS011;11215;51.938;8.464;2022-10-18T13:11:23;12.07;;;6.13;;
22097;SDS011;11215;51.938;8.464;2022-10-18T13:16:46;9.83;;;5.87;;
22097;SDS011;11215;51.938;8.464;2022-10-18T13:19:21;10.07;;;5.73;;
22097;SDS011;11215;51.938;8.464;2022-10-18T13:24:55;8.70;;;5.47;;
22097;SDS011;11215;51.938;8.464;2022-10-18T13:35:01;9.77;;;4.93;;
22097;SDS011;11215;51.938;8.464;2022-10-18T13:37:27;9.07;;;3.80;;
22097;SDS011;11215;51.938;8.464;2022-10-18T13:42:45;7.27;;;3.10;;
22097;SDS011;11215;51.938;8.464;2022-10-18T13:50:56;8.57;;;3.30;;
22097;SDS011;11215;51.938;8.464;2022-10-18T14:01:59;3.53;;;3.00;;
22097;SDS011;11215;51.938;8.464;2022-10-18T14:07:25;9.87;;;2.93;;
22097;SDS011;11215;51.938;8.464;2022-10-18T14:09:52;5.87;;;2.80;;
22097;SDS011;11215;51.938;8.464;2022-10-18T14:12:25;5.80;;;3.10;;
22097;SDS011;11215;51.938;8.464;2022-10-18T14:15:22;6.77;;;2.67;;
22097;SDS011;11215;51.938;8.464;2022-10-18T14:17:59;4.80;;;2.97;;
22097;SDS011;11215;51.938;8.464;2022-10-18T14:20:34;6.23;;;2.70;;
22097;SDS011;11215;51.938;8.464;2022-10-18T14:23:20;5.80;;;2.90;;
22097;SDS011;11215;51.938;8.464;2022-10-18T14:26:08;6.57;;;3.00;;
22097;SDS011;11215;51.938;8.464;2022-10-18T14:28:41;5.00;;;2.33;;
22097;SDS011;11215;51.938;8.464;2022-10-18T14:31:14;4.80;;;2.67;;
22097;SDS011;11215;51.938;8.464;2022-10-18T14:38:46;6.83;;;3.10;;
22097;SDS011;11215;51.938;8.464;2022-10-18T14:41:25;9.17;;;3.63;;
22097;SDS011;11215;51.938;8.464;2022-10-18T14:43:52;7.30;;;3.30;;
22097;SDS011;11215;51.938;8.464;2022-10-18T14:46:33;5.73;;;3.33;;
22097;SDS011;11215;51.938;8.464;2022-10-18T14:49:08;10.13;;;3.10;;
22097;SDS011;11215;51.938;8.464;2022-10-18T14:51:35;6.53;;;2.70;;
22097;SDS011;11215;51.938;8.464;2022-10-18T14:54:04;5.17;;;3.03;;
22097;SDS011;11215;51.938;8.464;2022-10-18T14:56:35;5.60;;;2.87;;
22097;SDS011;11215;51.938;8.464;2022-10-18T14:59:03;8.27;;;3.20;;
22097;SDS011;11215;51.938;8.464;2022-10-18T15:01:36;5.83;;;2.67;;
22097;SDS011;11215;51.938;8.464;2022-10-18T15:04:08;5.90;;;2.80;;
22097;SDS011;11215;51.938;8.464;2022-10-18T15:06:35;3.17;;;2.40;;
22097;SDS011;11215;51.938;8.464;2022-10-18T15:09:07;5.90;;;2.30;;
22097;SDS011;11215;51.938;8.464;2022-10-18T15:11:35;4.23;;;2.27;;
22097;SDS011;11215;51.938;8.464;2022-10-18T15:14:02;6.03;;;2.23;;
22097;SDS011;11215;51.938;8.464;2022-10-18T15:16:33;6.80;;;2.30;;
22097;SDS011;11215;51.938;8.464;2022-10-18T15:19:07;7.00;;;2.43;;
22097;SDS011;11215;51.938;8.464;2022-10-18T15:24:27;6.77;;;1.87;;
22097;SDS011;11215;51.938;8.464;2022-10-18T15:26:55;5.90;;;2.10;;
22097;SDS011;11215;51.938;8.464;2022-10-18T15:29:25;3.87;;;1.93;;
22097;SDS011;11215;51.938;8.464;2022-10-18T15:32:01;5.70;;;2.13;;
22097;SDS011;11215;51.938;8.464;2022-10-18T15:34:38;6.70;;;1.90;;
22097;SDS011;11215;51.938;8.464;2022-10-18T15:43:05;3.83;;;1.40;;
22097;SDS011;11215;51.938;8.464;2022-10-18T15:45:50;3.63;;;1.33;;
22097;SDS011;11215;51.938;8.464;2022-10-18T15:51:03;4.43;;;1.60;;
22097;SDS011;11215;51.938;8.464;2022-10-18T15:58:57;4.27;;;1.70;;
22097;SDS011;11215;51.938;8.464;2022-10-18T16:01:41;4.60;;;1.23;;
22097;SDS011;11215;51.938;8.464;2022-10-18T16:04:16;4.97;;;1.40;;
22097;SDS011;11215;51.938;8.464;2022-10-18T16:06:43;4.17;;;1.20;;
22097;SDS011;11215;51.938;8.464;2022-10-18T16:09:11;3.90;;;1.13;;
22097;SDS011;11215;51.938;8.464;2022-10-18T16:11:39;4.07;;;1.07;;
22097;SDS011;11215;51.938;8.464;2022-10-18T16:14:05;3.43;;;1.20;;
22097;SDS011;11215;51.938;8.464;2022-10-18T16:16:31;4.50;;;1.50;;
22097;SDS011;11215;51.938;8.464;2022-10-18T16:18:57;6.17;;;1.30;;
22097;SDS011;11215;51.938;8.464;2022-10-18T16:21:28;2.63;;;1.10;;
22097;SDS011;11215;51.938;8.464;2022-10-18T16:23:55;4.10;;;1.37;;
22097;SDS011;11215;51.938;8.464;2022-10-18T16:26:21;2.83;;;1.10;;
22097;SDS011;11215;51.938;8.464;2022-10-18T16:28:48;2.17;;;1.10;;
22097;SDS011;11215;51.938;8.464;2022-10-18T16:31:19;5.03;;;1.20;;
22097;SDS011;11215;51.938;8.464;2022-10-18T16:33:46;4.73;;;1.30;;
22097;SDS011;11215;51.938;8.464;2022-10-18T16:36:17;3.37;;;1.20;;
22097;SDS011;11215;51.938;8.464;2022-10-18T16:38:45;8.17;;;1.40;;
22097;SDS011;11215;51.938;8.464;2022-10-18T16:41:12;3.43;;;1.50;;
22097;SDS011;11215;51.938;8.464;2022-10-18T16:43:39;3.67;;;1.57;;
22097;SDS011;11215;51.938;8.464;2022-10-18T16:46:08;4.87;;;1.50;;
22097;SDS011;11215;51.938;8.464;2022-10-18T16:48:38;7.10;;;1.70;;
22097;SDS011;11215;51.938;8.464;2022-10-18T16:51:05;2.67;;;1.27;;
22097;SDS011;11215;51.938;8.464;2022-10-18T16:53:31;6.97;;;1.57;;
22097;SDS011;11215;51.938;8.464;2022-10-18T16:55:58;4.73;;;1.40;;
22097;SDS011;11215;51.938;8.464;2022-10-18T16:58:25;4.53;;;1.73;;
22097;SDS011;11215;51.938;8.464;2022-10-18T17:00:52;5.47;;;1.57;;
22097;SDS011;11215;51.938;8.464;2022-10-18T17:03:19;4.17;;;1.60;;
22097;SDS011;11215;51.938;8.464;2022-10-18T17:05:45;4.77;;;1.50;;
22097;SDS011;11215;51.938;8.464;2022-10-18T17:08:17;3.80;;;1.90;;
22097;SDS011;11215;51.938;8.464;2022-10-18T17:10:52;4.60;;;1.83;;
22097;SDS011;11215;51.938;8.464;2022-10-18T17:13:21;4.70;;;2.13;;
22097;SDS011;11215;51.938;8.464;2022-10-18T17:15:48;5.22;;;2.50;;
22097;SDS011;11215;51.938;8.464;2022-10-18T17:18:19;3.57;;;1.87;;
22097;SDS011;11215;51.938;8.464;2022-10-18T17:20:47;3.23;;;1.97;;
22097;SDS011;11215;51.938;8.464;2022-10-18T17:23:14;3.70;;;1.60;;
22097;SDS011;11215;51.938;8.464;2022-10-18T17:25:40;5.70;;;1.90;;
22097;SDS011;11215;51.938;8.464;2022-10-18T17:28:15;6.07;;;1.90;;
22097;SDS011;11215;51.938;8.464;2022-10-18T17:30:43;6.03;;;1.77;;
22097;SDS011;11215;51.938;8.464;2022-10-18T17:33:10;6.30;;;2.10;;
22097;SDS011;11215;51.938;8.464;2022-10-18T17:35:36;4.50;;;1.93;;
22097;SDS011;11215;51.938;8.464;2022-10-18T17:38:02;4.70;;;1.90;;
22097;SDS011;11215;51.938;8.464;2022-10-18T17:40:28;3.20;;;1.50;;
22097;SDS011;11215;51.938;8.464;2022-10-18T17:42:55;6.70;;;1.70;;
22097;SDS011;11215;51.938;8.464;2022-10-18T17:45:21;2.00;;;1.33;;
22097;SDS011;11215;51.938;8.464;2022-10-18T17:47:47;5.63;;;3.97;;
22097;SDS011;11215;51.938;8.464;2022-10-18T17:50:14;5.57;;;1.60;;
22097;SDS011;11215;51.938;8.464;2022-10-18T17:52:41;3.57;;;1.60;;
22097;SDS011;11215;51.938;8.464;2022-10-18T17:55:08;4.97;;;1.80;;
22097;SDS011;11215;51.938;8.464;2022-10-18T17:57:34;4.47;;;1.57;;
22097;SDS011;11215;51.938;8.464;2022-10-18T18:00:00;7.43;;;2.10;;
22097;SDS011;11215;51.938;8.464;2022-10-18T18:02:27;5.53;;;2.40;;